Time;durP1;ratioP1;P1;durP2;ratioP2;P2;SDS_P1;SDS_P2;PMS_P1;PMS_P2;Temp;Humidity;BMP_temperature;BMP_pressure;BME280_temperature;BME280_humidity;BME280_pressure;Samples;Min_cycle;Max_cycle;Signal;HPM_P1;HPM_P2
2022/10/17 00:02:15;;;;;;;6.10;2.83;;;;;;;;;;4987796;28;20061;-65
2022/10/17 00:04:43;;;;;;;6.75;2.70;;;;;;;;;;4989781;28;20045;-65
2022/10/17 00:07:10;;;;;;;6.38;2.70;;;;;;;;;;5002361;28;20060;-63
2022/10/17 00:09:37;;;;;;;6.43;2.80;;;;;;;;;;5010378;28;20072;-64
2022/10/17 00:12:04;;;;;;;6.82;2.90;;;;;;;;;;5004002;28;20104;-63
2022/10/17 00:14:31;;;;;;;5.10;2.53;;;;;;;;;;4990923;28;20136;-64
2022/10/17 00:16:58;;;;;;;6.30;2.85;;;;;;;;;;4983808;28;20053;-64
2022/10/17 00:19:25;;;;;;;5.35;2.45;;;;;;;;;;4989394;28;20064;-64
2022/10/17 00:21:53;;;;;;;5.47;2.42;;;;;;;;;;5010759;28;20103;-63
2022/10/17 00:24:20;;;;;;;5.57;2.58;;;;;;;;;;5009847;28;20049;-63
2022/10/17 00:26:46;;;;;;;5.63;2.30;;;;;;;;;;5003958;28;20046;-63
2022/10/17 00:29:13;;;;;;;5.28;2.47;;;;;;;;;;5009682;28;20102;-63
2022/10/17 00:31:39;;;;;;;5.75;2.90;;;;;;;;;;5002716;28;20052;-63
2022/10/17 00:34:06;;;;;;;5.15;2.33;;;;;;;;;;5009189;28;20111;-64
2022/10/17 00:36:33;;;;;;;5.88;2.50;;;;;;;;;;5001518;28;20064;-64
2022/10/17 00:39:01;;;;;;;6.78;2.83;;;;;;;;;;4989257;28;20053;-63
2022/10/17 00:41:29;;;;;;;4.90;2.50;;;;;;;;;;4986887;28;20084;-63
2022/10/17 00:43:57;;;;;;;5.20;2.45;;;;;;;;;;4987927;28;20073;-63
2022/10/17 00:46:28;;;;;;;6.30;2.50;;;;;;;;;;4969646;28;20050;-64
2022/10/17 00:48:56;;;;;;;7.88;2.45;;;;;;;;;;5000776;28;20068;-63
2022/10/17 00:51:25;;;;;;;10.32;2.88;;;;;;;;;;5008642;28;20055;-64
2022/10/17 00:53:52;;;;;;;5.68;2.85;;;;;;;;;;5002816;28;20061;-63
2022/10/17 00:56:20;;;;;;;4.93;2.30;;;;;;;;;;5025504;28;20057;-63
2022/10/17 00:58:47;;;;;;;;;;;;;;;;;;4989278;28;20066;-63
2022/10/17 01:01:13;;;;;;;3.72;2.10;;;;;;;;;;4989130;28;19940;-64
2022/10/17 01:03:40;;;;;;;5.22;2.00;;;;;;;;;;4994663;28;20056;-63
2022/10/17 01:06:07;;;;;;;5.20;2.58;;;;;;;;;;5008593;28;20060;-64
2022/10/17 01:08:34;;;;;;;6.15;2.45;;;;;;;;;;5002721;28;20099;-63
2022/10/17 01:11:04;;;;;;;5.40;2.47;;;;;;;;;;4999969;28;20053;-63
2022/10/17 01:13:35;;;;;;;5.43;2.38;;;;;;;;;;4989046;28;20057;-63
2022/10/17 01:16:06;;;;;;;5.78;2.72;;;;;;;;;;4998276;28;20050;-63
2022/10/17 01:18:41;;;;;;;4.95;2.28;;;;;;;;;;4983433;28;20049;-64
2022/10/17 01:21:14;;;;;;;6.82;3.08;;;;;;;;;;4987144;28;20054;-64
2022/10/17 01:23:49;;;;;;;9.55;3.00;;;;;;;;;;4987488;28;20075;-63
2022/10/17 01:26:19;;;;;;;6.13;2.55;;;;;;;;;;5008357;28;20061;-63
2022/10/17 01:29:01;;;;;;;6.18;3.03;;;;;;;;;;5001352;28;20049;-63
2022/10/17 01:31:32;;;;;;;4.20;2.10;;;;;;;;;;5024641;28;20068;-63
2022/10/17 01:34:01;;;;;;;5.85;2.33;;;;;;;;;;5018710;28;20080;-63
2022/10/17 01:36:40;;;;;;;6.05;2.72;;;;;;;;;;5008599;28;20045;-63
2022/10/17 01:39:12;;;;;;;4.03;2.22;;;;;;;;;;4999181;28;20077;-64
2022/10/17 01:41:42;;;;;;;7.18;2.50;;;;;;;;;;4988524;28;20058;-63
2022/10/17 01:44:11;;;;;;;6.63;2.58;;;;;;;;;;4983745;28;20057;-63
2022/10/17 01:46:39;;;;;;;5.88;2.97;;;;;;;;;;4988557;28;20064;-63
2022/10/17 01:49:08;;;;;;;8.50;2.70;;;;;;;;;;4985745;28;20183;-64
2022/10/17 01:51:37;;;;;;;8.98;3.33;;;;;;;;;;5004743;28;20054;-64
2022/10/17 01:54:06;;;;;;;8.27;3.08;;;;;;;;;;4974007;28;20061;-64
2022/10/17 01:56:34;;;;;;;4.72;2.40;;;;;;;;;;4964075;28;20062;-63
2022/10/17 01:59:05;;;;;;;5.57;2.90;;;;;;;;;;4969519;28;20065;-64
2022/10/17 02:01:32;;;;;;;4.70;2.30;;;;;;;;;;4965186;28;20116;-64
2022/10/17 02:04:01;;;;;;;6.03;2.40;;;;;;;;;;4969949;28;20105;-64
2022/10/17 02:06:27;;;;;;;4.30;2.20;;;;;;;;;;4966840;28;20058;-63
2022/10/17 02:08:54;;;;;;;6.38;2.22;;;;;;;;;;4972729;28;20113;-64
2022/10/17 02:11:22;;;;;;;7.93;2.65;;;;;;;;;;4974676;28;20062;-63
2022/10/17 02:13:58;;;;;;;6.33;2.80;;;;;;;;;;4988810;28;20065;-64
2022/10/17 02:16:31;;;;;;;5.13;2.78;;;;;;;;;;4975592;28;20054;-64
2022/10/17 02:19:06;;;;;;;4.25;2.33;;;;;;;;;;4973462;28;20065;-63
2022/10/17 02:21:38;;;;;;;5.07;2.45;;;;;;;;;;4971804;28;20086;-64
2022/10/17 02:24:06;;;;;;;5.97;2.38;;;;;;;;;;4989107;28;20054;-63
2022/10/17 02:26:33;;;;;;;;;;;;;;;;;;4982665;28;20050;-64
2022/10/17 02:29:03;;;;;;;3.97;2.05;;;;;;;;;;4988346;28;19934;-64
2022/10/17 02:31:32;;;;;;;5.28;2.50;;;;;;;;;;4981279;28;20054;-63
2022/10/17 02:33:59;;;;;;;6.85;2.60;;;;;;;;;;4972431;28;20061;-64
2022/10/17 02:36:29;;;;;;;7.68;3.00;;;;;;;;;;4966607;28;20046;-64
2022/10/17 02:38:56;;;;;;;7.38;2.88;;;;;;;;;;4972118;28;20054;-63
2022/10/17 02:41:24;;;;;;;6.65;2.53;;;;;;;;;;4967120;28;20092;-64
2022/10/17 02:43:51;;;;;;;8.27;2.92;;;;;;;;;;4971978;28;20062;-63
2022/10/17 02:46:20;;;;;;;6.50;2.78;;;;;;;;;;4970146;28;20101;-64
2022/10/17 02:48:48;;;;;;;6.20;2.53;;;;;;;;;;4979709;28;20054;-64
2022/10/17 02:51:20;;;;;;;4.80;2.30;;;;;;;;;;4972857;28;20141;-63
2022/10/17 02:53:52;;;;;;;5.57;2.50;;;;;;;;;;4979583;28;20060;-63
2022/10/17 02:56:20;;;;;;;5.68;2.50;;;;;;;;;;4991478;28;20057;-63
2022/10/17 02:58:47;;;;;;;5.93;2.55;;;;;;;;;;4969008;28;20063;-64
2022/10/17 03:01:14;;;;;;;4.97;2.45;;;;;;;;;;4952405;28;20055;-64
2022/10/17 03:03:41;;;;;;;3.90;1.95;;;;;;;;;;4975350;28;20054;-64
2022/10/17 03:06:08;;;;;;;4.72;2.20;;;;;;;;;;4990961;28;20046;-64
2022/10/17 03:08:34;;;;;;;5.07;2.33;;;;;;;;;;4972854;28;20050;-64
2022/10/17 03:11:02;;;;;;;6.20;3.15;;;;;;;;;;4971824;28;20062;-64
2022/10/17 03:13:29;;;;;;;6.28;2.70;;;;;;;;;;4966460;28;20069;-64
2022/10/17 03:15:56;;;;;;;5.63;2.53;;;;;;;;;;4966858;28;20054;-64
2022/10/17 03:18:24;;;;;;;7.45;3.55;;;;;;;;;;4966260;28;20161;-64
2022/10/17 03:20:50;;;;;;;11.20;3.42;;;;;;;;;;4968730;28;20065;-64
2022/10/17 03:23:17;;;;;;;6.60;3.28;;;;;;;;;;4955763;28;20050;-66
2022/10/17 03:25:44;;;;;;;6.18;2.60;;;;;;;;;;5007441;28;20165;-63
2022/10/17 03:28:13;;;;;;;7.05;3.22;;;;;;;;;;4981865;28;20061;-63
2022/10/17 03:30:42;;;;;;;10.00;3.60;;;;;;;;;;4951841;28;20074;-64
2022/10/17 03:33:08;;;;;;;9.10;3.30;;;;;;;;;;4949023;28;20065;-63
2022/10/17 03:35:38;;;;;;;5.20;2.45;;;;;;;;;;4950325;28;20178;-63
2022/10/17 03:38:04;;;;;;;4.25;2.20;;;;;;;;;;4971523;28;20046;-63
2022/10/17 03:40:31;;;;;;;6.47;2.60;;;;;;;;;;4948936;28;20141;-64
2022/10/17 03:42:57;;;;;;;7.13;3.30;;;;;;;;;;4951950;28;20047;-63
2022/10/17 03:45:25;;;;;;;7.22;3.50;;;;;;;;;;4961066;28;20130;-63
2022/10/17 03:47:52;;;;;;;6.40;3.20;;;;;;;;;;4969994;28;20054;-63
2022/10/17 03:50:18;;;;;;;5.13;2.42;;;;;;;;;;4965910;28;20052;-63
2022/10/17 03:52:46;;;;;;;8.50;3.55;;;;;;;;;;4970884;28;20078;-64
2022/10/17 03:55:12;;;;;;;7.07;3.30;;;;;;;;;;4972743;28;20085;-63
2022/10/17 03:57:40;;;;;;;8.75;3.33;;;;;;;;;;4986792;28;20065;-64
2022/10/17 04:00:07;;;;;;;7.35;3.22;;;;;;;;;;4977267;28;20050;-64
2022/10/17 04:02:35;;;;;;;5.72;2.40;;;;;;;;;;4970384;28;20108;-63
2022/10/17 04:05:02;;;;;;;6.90;2.80;;;;;;;;;;4967299;28;20050;-63
2022/10/17 04:07:31;;;;;;;7.97;3.13;;;;;;;;;;4986810;28;20054;-64
2022/10/17 04:09:57;;;;;;;9.00;2.60;;;;;;;;;;4980893;28;20046;-63
2022/10/17 04:12:24;;;;;;;7.43;3.28;;;;;;;;;;4970460;28;20090;-63
2022/10/17 04:14:50;;;;;;;6.20;2.83;;;;;;;;;;4965049;28;20054;-64
2022/10/17 04:17:18;;;;;;;6.47;2.85;;;;;;;;;;4959517;28;20062;-63
2022/10/17 04:19:45;;;;;;;3.67;1.98;;;;;;;;;;4951506;28;20082;-63
2022/10/17 04:22:12;;;;;;;6.93;3.60;;;;;;;;;;4964814;28;20051;-64
2022/10/17 04:24:38;;;;;;;6.80;2.75;;;;;;;;;;4970356;28;20105;-64
2022/10/17 04:27:05;;;;;;;9.20;3.35;;;;;;;;;;4964815;28;20085;-64
2022/10/17 04:29:31;;;;;;;10.95;3.60;;;;;;;;;;4970167;28;20058;-64
2022/10/17 04:31:58;;;;;;;9.95;3.58;;;;;;;;;;4972854;28;20063;-64
2022/10/17 04:34:24;;;;;;;5.90;2.42;;;;;;;;;;4986714;28;20043;-64
2022/10/17 04:36:52;;;;;;;8.30;3.00;;;;;;;;;;4973186;28;20042;-63
2022/10/17 04:39:19;;;;;;;7.85;3.78;;;;;;;;;;4970228;28;20132;-64
2022/10/17 04:41:46;;;;;;;8.27;4.00;;;;;;;;;;4965305;28;20050;-63
2022/10/17 04:44:12;;;;;;;10.27;4.40;;;;;;;;;;4970298;28;20046;-63
2022/10/17 04:46:39;;;;;;;6.55;3.33;;;;;;;;;;4964908;28;20053;-64
2022/10/17 04:49:06;;;;;;;8.27;3.75;;;;;;;;;;4969444;28;20073;-63
2022/10/17 04:51:32;;;;;;;7.15;3.53;;;;;;;;;;4964773;28;20065;-63
2022/10/17 04:54:00;;;;;;;11.18;5.43;;;;;;;;;;4982575;28;20058;-64
2022/10/17 04:56:27;;;;;;;9.75;4.57;;;;;;;;;;4965546;28;20117;-64
2022/10/17 04:58:55;;;;;;;13.98;6.93;;;;;;;;;;4979119;28;20058;-64
2022/10/17 05:01:22;;;;;;;16.92;6.72;;;;;;;;;;4988881;28;20058;-64
2022/10/17 05:03:49;;;;;;;11.10;5.30;;;;;;;;;;4976412;28;20061;-64
2022/10/17 05:06:17;;;;;;;7.35;3.45;;;;;;;;;;4982832;28;20061;-63
2022/10/17 05:08:43;;;;;;;8.82;3.92;;;;;;;;;;4978652;28;20065;-64
2022/10/17 05:11:18;;;;;;;5.47;2.83;;;;;;;;;;4982117;28;20068;-63
2022/10/17 05:13:45;;;;;;;7.53;3.67;;;;;;;;;;4980370;28;20096;-64
2022/10/17 05:16:12;;;;;;;7.72;3.42;;;;;;;;;;4979422;28;20140;-64
2022/10/17 05:18:39;;;;;;;13.52;6.78;;;;;;;;;;4976915;28;20058;-63
2022/10/17 05:21:06;;;;;;;11.80;5.10;;;;;;;;;;4985249;28;20081;-63
2022/10/17 05:23:33;;;;;;;9.38;4.10;;;;;;;;;;4974103;28;20054;-63
2022/10/17 05:26:00;;;;;;;17.52;6.85;;;;;;;;;;4983432;28;20101;-63
2022/10/17 05:28:28;;;;;;;8.20;3.25;;;;;;;;;;4981652;28;20054;-64
2022/10/17 05:30:54;;;;;;;9.95;3.92;;;;;;;;;;4983267;28;20053;-64
2022/10/17 05:33:22;;;;;;;10.25;3.33;;;;;;;;;;4994848;28;20042;-64
2022/10/17 05:35:49;;;;;;;5.97;3.13;;;;;;;;;;4983685;28;20057;-64
2022/10/17 05:38:15;;;;;;;5.32;2.53;;;;;;;;;;4989286;28;20058;-64
2022/10/17 05:40:42;;;;;;;14.80;6.18;;;;;;;;;;5010917;28;20058;-64
2022/10/17 05:43:09;;;;;;;12.63;6.13;;;;;;;;;;5010920;28;20054;-64
2022/10/17 05:45:37;;;;;;;18.08;7.32;;;;;;;;;;4992618;28;20054;-64
2022/10/17 05:48:04;;;;;;;11.90;5.75;;;;;;;;;;4994885;28;20061;-64
2022/10/17 05:50:30;;;;;;;12.82;4.32;;;;;;;;;;4973116;28;20078;-63
2022/10/17 05:52:57;;;;;;;6.80;2.50;;;;;;;;;;4976027;28;20058;-64
2022/10/17 05:55:24;;;;;;;6.75;3.60;;;;;;;;;;4987113;28;20057;-64
2022/10/17 05:57:52;;;;;;;6.28;2.70;;;;;;;;;;4975062;28;20050;-64
2022/10/17 06:00:20;;;;;;;10.23;3.78;;;;;;;;;;4982634;28;20059;-64
2022/10/17 06:02:48;;;;;;;7.43;3.53;;;;;;;;;;4995686;28;20057;-64
2022/10/17 06:05:14;;;;;;;6.25;2.95;;;;;;;;;;4990078;28;20046;-64
2022/10/17 06:07:42;;;;;;;9.40;3.78;;;;;;;;;;4994810;28;20143;-64
2022/10/17 06:10:11;;;;;;;8.35;3.83;;;;;;;;;;4993906;28;20125;-63
2022/10/17 06:12:37;;;;;;;7.72;3.97;;;;;;;;;;4994685;28;20065;-64
2022/10/17 06:15:04;;;;;;;3.95;2.50;;;;;;;;;;4984731;28;20054;-64
2022/10/17 06:17:31;;;;;;;7.82;3.58;;;;;;;;;;4992088;28;20115;-64
2022/10/17 06:19:59;;;;;;;12.07;4.13;;;;;;;;;;4989259;28;20053;-65
2022/10/17 06:22:25;;;;;;;6.45;3.50;;;;;;;;;;5011624;28;20049;-64
2022/10/17 06:24:52;;;;;;;10.50;4.88;;;;;;;;;;4990838;28;20053;-64
2022/10/17 06:27:19;;;;;;;8.93;4.00;;;;;;;;;;4994802;28;20062;-63
2022/10/17 06:29:46;;;;;;;6.95;3.40;;;;;;;;;;4993925;28;20232;-64
2022/10/17 06:32:12;;;;;;;9.02;3.55;;;;;;;;;;5003734;28;20072;-64
2022/10/17 06:34:39;;;;;;;9.75;4.25;;;;;;;;;;5010975;28;20137;-64
2022/10/17 06:37:08;;;;;;;13.10;4.07;;;;;;;;;;4993775;28;20054;-63
2022/10/17 06:39:34;;;;;;;9.90;4.53;;;;;;;;;;4994570;28;20045;-63
2022/10/17 06:42:01;;;;;;;8.98;3.50;;;;;;;;;;4989089;28;20062;-63
2022/10/17 06:44:30;;;;;;;6.32;3.45;;;;;;;;;;4994224;28;20053;-64
2022/10/17 06:46:57;;;;;;;8.10;3.22;;;;;;;;;;4979118;28;20058;-63
2022/10/17 06:49:23;;;;;;;5.10;2.42;;;;;;;;;;4975057;28;20057;-64
2022/10/17 06:51:52;;;;;;;7.80;3.60;;;;;;;;;;4994201;28;20054;-64
2022/10/17 06:54:21;;;;;;;6.03;2.85;;;;;;;;;;5007494;28;20054;-63
2022/10/17 06:56:48;;;;;;;6.75;3.38;;;;;;;;;;5004677;28;20048;-64
2022/10/17 06:59:15;;;;;;;16.15;5.15;;;;;;;;;;4991562;28;20077;-63
2022/10/17 07:01:42;;;;;;;7.28;3.28;;;;;;;;;;4986298;28;20060;-63
2022/10/17 07:04:08;;;;;;;7.13;3.55;;;;;;;;;;4991505;28;20058;-63
2022/10/17 07:06:35;;;;;;;6.82;3.15;;;;;;;;;;4986006;28;20050;-63
2022/10/17 07:09:05;;;;;;;9.13;3.95;;;;;;;;;;4991451;28;20054;-63
2022/10/17 07:11:34;;;;;;;11.18;3.63;;;;;;;;;;4989184;28;20080;-63
2022/10/17 07:14:00;;;;;;;5.30;2.65;;;;;;;;;;4977413;28;20104;-63
2022/10/17 07:16:27;;;;;;;8.80;3.28;;;;;;;;;;4990584;28;20060;-63
2022/10/17 07:18:55;;;;;;;6.63;3.00;;;;;;;;;;4986118;28;20038;-63
2022/10/17 07:21:21;;;;;;;8.93;3.85;;;;;;;;;;4991254;28;20056;-63
2022/10/17 07:23:48;;;;;;;6.60;3.17;;;;;;;;;;4985108;28;20123;-63
2022/10/17 07:26:15;;;;;;;9.10;3.80;;;;;;;;;;4991001;28;20113;-63
2022/10/17 07:28:44;;;;;;;5.07;2.60;;;;;;;;;;4974657;28;20050;-63
2022/10/17 07:31:12;;;;;;;7.18;2.95;;;;;;;;;;4971472;28;20077;-63
2022/10/17 07:33:39;;;;;;;8.57;3.55;;;;;;;;;;4976614;28;20155;-63
2022/10/17 07:36:06;;;;;;;5.82;2.90;;;;;;;;;;4990386;28;20057;-63
2022/10/17 07:38:35;;;;;;;7.15;3.83;;;;;;;;;;4988186;28;20061;-63
2022/10/17 07:41:02;;;;;;;6.07;3.20;;;;;;;;;;4999519;28;20061;-63
2022/10/17 07:43:30;;;;;;;4.50;2.50;;;;;;;;;;4984714;28;20053;-63
2022/10/17 07:45:58;;;;;;;8.10;3.78;;;;;;;;;;4990542;28;20127;-63
2022/10/17 07:48:25;;;;;;;6.72;3.20;;;;;;;;;;4985251;28;20072;-63
2022/10/17 07:50:51;;;;;;;15.20;8.00;;;;;;;;;;4990738;28;20058;-63
2022/10/17 07:53:18;;;;;;;18.58;7.68;;;;;;;;;;4985482;28;20058;-63
2022/10/17 07:55:46;;;;;;;11.68;5.90;;;;;;;;;;4970826;28;20060;-63
2022/10/17 07:58:13;;;;;;;12.50;4.95;;;;;;;;;;4970619;28;20073;-63
2022/10/17 08:00:40;;;;;;;11.48;4.13;;;;;;;;;;4983954;28;20062;-63
2022/10/17 08:03:10;;;;;;;7.90;4.00;;;;;;;;;;4989897;28;20053;-63
2022/10/17 08:05:36;;;;;;;11.65;3.70;;;;;;;;;;4984754;28;20058;-63
2022/10/17 08:08:04;;;;;;;6.30;3.05;;;;;;;;;;4989599;28;20053;-63
2022/10/17 08:10:31;;;;;;;7.07;3.45;;;;;;;;;;4983918;28;20208;-63
2022/10/17 08:12:58;;;;;;;6.20;3.08;;;;;;;;;;4989691;28;20053;-63
2022/10/17 08:15:25;;;;;;;11.20;3.92;;;;;;;;;;4973077;28;20054;-63
2022/10/17 08:17:54;;;;;;;12.80;4.18;;;;;;;;;;4988885;28;20060;-63
2022/10/17 08:20:22;;;;;;;9.32;3.53;;;;;;;;;;4989433;28;20069;-63
2022/10/17 08:22:51;;;;;;;11.68;3.78;;;;;;;;;;5005984;28;20084;-63
2022/10/17 08:25:18;;;;;;;5.95;3.35;;;;;;;;;;4990814;28;20066;-63
2022/10/17 08:27:45;;;;;;;8.43;3.08;;;;;;;;;;4985752;28;20101;-63
2022/10/17 08:30:12;;;;;;;7.82;3.25;;;;;;;;;;4965874;28;20057;-63
2022/10/17 08:32:38;;;;;;;8.10;2.97;;;;;;;;;;4985786;28;20054;-63
2022/10/17 08:35:05;;;;;;;6.82;3.22;;;;;;;;;;4983075;28;20100;-63
2022/10/17 08:37:35;;;;;;;7.30;2.95;;;;;;;;;;5005062;28;20050;-64
2022/10/17 08:40:02;;;;;;;6.75;3.47;;;;;;;;;;4989396;28;20054;-66
2022/10/17 08:42:41;;;;;;;11.40;5.15;;;;;;;;;;4967691;28;20064;-64
2022/10/17 08:45:13;;;;;;;12.10;6.05;;;;;;;;;;4970058;28;20072;-64
2022/10/17 08:47:42;;;;;;;9.02;4.00;;;;;;;;;;5002220;28;20078;-64
2022/10/17 08:50:12;;;;;;;9.02;3.85;;;;;;;;;;5007076;28;20058;-64
2022/10/17 08:52:42;;;;;;;8.27;2.92;;;;;;;;;;4981802;28;20058;-64
2022/10/17 08:55:14;;;;;;;12.00;3.22;;;;;;;;;;4989362;28;20054;-64
2022/10/17 08:57:41;;;;;;;7.43;3.38;;;;;;;;;;4983452;28;20054;-64
2022/10/17 09:00:13;;;;;;;6.18;3.13;;;;;;;;;;5005514;28;20054;-64
2022/10/17 09:02:44;;;;;;;6.50;3.13;;;;;;;;;;4980949;28;20060;-64
2022/10/17 09:05:19;;;;;;;7.88;3.53;;;;;;;;;;4988719;28;20042;-64
2022/10/17 09:07:53;;;;;;;7.95;3.30;;;;;;;;;;4983746;28;20050;-64
2022/10/17 09:10:23;;;;;;;6.97;3.30;;;;;;;;;;4988919;28;20060;-64
2022/10/17 09:12:54;;;;;;;8.18;3.20;;;;;;;;;;4983307;28;20066;-64
2022/10/17 09:15:29;;;;;;;8.50;3.17;;;;;;;;;;4987917;28;20065;-66
2022/10/17 09:17:58;;;;;;;7.30;3.45;;;;;;;;;;4983655;28;20064;-64
2022/10/17 09:20:26;;;;;;;8.63;3.58;;;;;;;;;;5005037;28;20108;-63
2022/10/17 09:22:57;;;;;;;6.95;3.38;;;;;;;;;;4992270;28;20062;-64
2022/10/17 09:25:23;;;;;;;8.25;2.97;;;;;;;;;;4988663;28;20061;-64
2022/10/17 09:27:52;;;;;;;9.18;3.50;;;;;;;;;;4975594;28;20112;-63
2022/10/17 09:30:23;;;;;;;12.18;3.70;;;;;;;;;;5001828;28;20058;-63
2022/10/17 09:32:50;;;;;;;8.82;3.53;;;;;;;;;;4996358;28;20061;-64
2022/10/17 09:35:17;;;;;;;7.55;3.33;;;;;;;;;;4985024;28;20054;-64
2022/10/17 09:37:49;;;;;;;5.65;2.85;;;;;;;;;;4966598;28;20145;-63
2022/10/17 09:40:19;;;;;;;8.70;3.70;;;;;;;;;;4989023;28;20073;-63
2022/10/17 09:42:47;;;;;;;10.10;4.28;;;;;;;;;;4982842;28;20053;-63
2022/10/17 09:45:18;;;;;;;11.02;3.63;;;;;;;;;;5001381;28;20053;-63
2022/10/17 09:47:47;;;;;;;10.90;4.18;;;;;;;;;;4999761;28;20081;-63
2022/10/17 09:50:16;;;;;;;6.55;2.72;;;;;;;;;;4969188;28;20051;-63
2022/10/17 09:52:46;;;;;;;5.80;2.90;;;;;;;;;;4965610;28;20051;-63
2022/10/17 09:55:17;;;;;;;7.43;3.75;;;;;;;;;;4978356;28;20054;-63
2022/10/17 09:57:56;;;;;;;11.45;4.35;;;;;;;;;;4984322;28;20055;-63
2022/10/17 10:00:23;;;;;;;7.22;3.05;;;;;;;;;;4977930;28;20057;-64
2022/10/17 10:02:50;;;;;;;9.05;3.40;;;;;;;;;;4985188;28;20062;-63
2022/10/17 10:05:18;;;;;;;9.68;3.42;;;;;;;;;;4965778;28;20054;-63
2022/10/17 10:08:00;;;;;;;13.43;3.80;;;;;;;;;;4967600;28;20097;-63
2022/10/17 10:10:27;;;;;;;8.05;3.17;;;;;;;;;;4950595;28;20055;-63
2022/10/17 10:13:06;;;;;;;7.88;3.33;;;;;;;;;;4967688;28;20066;-63
2022/10/17 10:15:33;;;;;;;;;;;;;;;;;;4963042;28;20058;-63
2022/10/17 10:17:59;;;;;;;6.15;2.63;;;;;;;;;;4968055;28;19925;-63
2022/10/17 10:20:28;;;;;;;8.52;3.75;;;;;;;;;;4971869;28;20069;-63
2022/10/17 10:23:13;;;;;;;8.00;3.72;;;;;;;;;;4984461;28;20120;-63
2022/10/17 10:25:48;;;;;;;5.20;2.95;;;;;;;;;;4972302;28;20058;-64
2022/10/17 10:28:17;;;;;;;8.10;4.22;;;;;;;;;;4972854;28;20145;-63
2022/10/17 10:30:47;;;;;;;8.77;3.33;;;;;;;;;;4974558;28;20069;-63
2022/10/17 10:33:13;;;;;;;7.45;3.80;;;;;;;;;;4988376;28;20068;-64
2022/10/17 10:35:40;;;;;;;11.77;4.47;;;;;;;;;;4977585;28;20046;-64
2022/10/17 10:38:10;;;;;;;13.60;4.28;;;;;;;;;;4972072;28;20042;-64
2022/10/17 10:40:44;;;;;;;8.90;4.18;;;;;;;;;;4966367;28;20077;-64
2022/10/17 10:43:20;;;;;;;7.30;3.70;;;;;;;;;;4972222;28;20065;-63
2022/10/17 10:45:51;;;;;;;7.43;3.92;;;;;;;;;;4967275;28;20057;-64
2022/10/17 10:48:21;;;;;;;9.15;4.15;;;;;;;;;;4965907;28;20054;-64
2022/10/17 10:50:49;;;;;;;7.95;3.63;;;;;;;;;;4952370;28;20046;-64
2022/10/17 10:53:25;;;;;;;9.77;3.10;;;;;;;;;;4971756;28;20062;-64
2022/10/17 10:55:55;;;;;;;7.25;2.95;;;;;;;;;;4968074;28;20077;-65
2022/10/17 10:58:26;;;;;;;6.07;2.65;;;;;;;;;;4988064;28;20069;-64
2022/10/17 11:00:54;;;;;;;10.68;3.40;;;;;;;;;;4982455;28;20058;-64
2022/10/17 11:03:23;;;;;;;6.88;2.55;;;;;;;;;;4988272;28;20060;-64
2022/10/17 11:05:51;;;;;;;5.72;2.97;;;;;;;;;;4982780;28;20108;-63
2022/10/17 11:08:24;;;;;;;5.63;2.70;;;;;;;;;;4971924;28;20073;-63
2022/10/17 11:10:59;;;;;;;6.75;2.78;;;;;;;;;;4969640;28;20065;-64
2022/10/17 11:13:27;;;;;;;5.97;2.88;;;;;;;;;;4987666;28;20046;-64
2022/10/17 11:15:58;;;;;;;6.97;2.45;;;;;;;;;;4983032;28;20086;-66
2022/10/17 11:18:28;;;;;;;9.93;2.92;;;;;;;;;;4965596;28;20137;-66
2022/10/17 11:20:57;;;;;;;7.38;2.65;;;;;;;;;;4971838;28;20050;-66
2022/10/17 11:23:26;;;;;;;6.07;3.08;;;;;;;;;;4965784;28;20054;-65
2022/10/17 11:25:53;;;;;;;5.22;2.35;;;;;;;;;;4971002;28;20063;-66
2022/10/17 11:28:20;;;;;;;6.28;2.88;;;;;;;;;;4976430;28;20050;-66
2022/10/17 11:30:50;;;;;;;10.57;3.25;;;;;;;;;;4987379;28;20066;-65
2022/10/17 11:33:21;;;;;;;12.80;3.63;;;;;;;;;;4973384;28;20061;-65
2022/10/17 11:35:51;;;;;;;6.47;3.53;;;;;;;;;;4970897;28;20089;-65
2022/10/17 11:38:21;;;;;;;6.57;2.97;;;;;;;;;;4965172;28;20065;-65
2022/10/17 11:40:50;;;;;;;7.15;3.20;;;;;;;;;;4971614;28;20114;-66
2022/10/17 11:43:18;;;;;;;5.78;2.92;;;;;;;;;;4971296;28;20065;-65
2022/10/17 11:45:47;;;;;;;7.40;3.30;;;;;;;;;;4987251;28;20062;-65
2022/10/17 11:48:13;;;;;;;;;;;;;;;;;;4977297;28;20100;-63
2022/10/17 11:50:43;;;;;;;8.50;3.20;;;;;;;;;;4970356;28;19926;-63
2022/10/17 11:53:12;;;;;;;7.63;3.05;;;;;;;;;;4972728;28;20116;-63
2022/10/17 11:55:40;;;;;;;7.63;3.20;;;;;;;;;;4989761;28;20085;-63
2022/10/17 11:58:30;;;;;;;7.65;3.70;;;;;;;;;;4984833;28;20042;-63
2022/10/17 12:01:00;;;;;;;7.20;3.30;;;;;;;;;;5005839;28;20049;-63
2022/10/17 12:03:32;;;;;;;5.88;2.97;;;;;;;;;;4999425;28;20049;-63
2022/10/17 12:06:04;;;;;;;5.85;3.08;;;;;;;;;;4990340;28;20077;-63
2022/10/17 12:08:33;;;;;;;6.85;3.40;;;;;;;;;;4984022;28;20108;-63
2022/10/17 12:11:03;;;;;;;7.22;3.47;;;;;;;;;;4989926;28;20145;-63
2022/10/17 12:13:49;;;;;;;12.43;3.97;;;;;;;;;;4983653;28;20088;-63
2022/10/17 12:16:36;;;;;;;6.97;3.55;;;;;;;;;;5005283;28;20065;-63
2022/10/17 12:19:17;;;;;;;8.18;3.83;;;;;;;;;;4981291;28;20045;-64
2022/10/17 12:21:59;;;;;;;7.95;3.63;;;;;;;;;;4997359;28;20062;-63
2022/10/17 12:24:36;;;;;;;7.60;3.88;;;;;;;;;;4998669;28;20054;-63
2022/10/17 12:27:36;;;;;;;9.53;3.77;;;;;;;;;;4989325;28;20065;-63
2022/10/17 12:30:05;;;;;;;7.18;3.63;;;;;;;;;;4924823;29;20310;-64
2022/10/17 12:32:31;;;;;;;;;;;;;;;;;;4930504;29;20063;-63
2022/10/17 12:34:58;;;;;;;6.18;2.90;;;;;;;;;;4951036;28;19928;-63
2022/10/17 12:37:43;;;;;;;6.72;3.40;;;;;;;;;;5005596;28;20050;-62
2022/10/17 12:40:25;;;;;;;6.80;3.28;;;;;;;;;;4985719;28;20054;-63
2022/10/17 12:42:53;;;;;;;6.97;3.15;;;;;;;;;;5004950;28;20046;-64
2022/10/17 12:45:38;;;;;;;7.53;3.88;;;;;;;;;;4999096;28;20061;-63
2022/10/17 12:48:09;;;;;;;7.75;3.38;;;;;;;;;;5003901;28;20064;-64
2022/10/17 12:50:55;;;;;;;8.27;4.03;;;;;;;;;;4975335;28;20147;-64
2022/10/17 12:53:24;;;;;;;9.70;3.85;;;;;;;;;;5005128;28;20053;-63
2022/10/17 12:55:58;;;;;;;9.73;3.92;;;;;;;;;;4996685;28;20053;-64
2022/10/17 12:58:27;;;;;;;7.03;3.58;;;;;;;;;;4988806;28;20050;-64
2022/10/17 13:00:54;;;;;;;8.02;4.22;;;;;;;;;;4985773;28;20062;-64
2022/10/17 13:03:23;;;;;;;8.93;4.00;;;;;;;;;;5005692;28;20049;-63
2022/10/17 13:05:51;;;;;;;7.18;4.20;;;;;;;;;;4999479;28;20049;-63
2022/10/17 13:08:20;;;;;;;9.25;4.38;;;;;;;;;;5004819;28;20053;-64
2022/10/17 13:10:49;;;;;;;7.50;3.95;;;;;;;;;;4983407;28;20111;-64
2022/10/17 13:13:18;;;;;;;9.07;4.22;;;;;;;;;;5005329;28;20057;-64
2022/10/17 13:15:50;;;;;;;8.77;4.28;;;;;;;;;;5003707;28;20167;-64
2022/10/17 13:18:18;;;;;;;7.72;3.90;;;;;;;;;;5004669;28;20050;-64
2022/10/17 13:20:54;;;;;;;11.07;4.67;;;;;;;;;;5005091;28;20128;-64
2022/10/17 13:23:24;;;;;;;10.10;3.80;;;;;;;;;;4982712;28;20085;-64
2022/10/17 13:26:02;;;;;;;8.90;4.20;;;;;;;;;;4988869;28;20049;-64
2022/10/17 13:28:28;;;;;;;11.55;4.68;;;;;;;;;;4998263;28;20058;-64
2022/10/17 13:30:56;;;;;;;12.93;4.35;;;;;;;;;;5003045;28;20046;-64
2022/10/17 13:33:29;;;;;;;8.40;4.20;;;;;;;;;;4985865;28;20057;-63
2022/10/17 13:35:56;;;;;;;10.63;4.53;;;;;;;;;;4988108;28;20046;-63
2022/10/17 13:38:26;;;;;;;11.65;4.43;;;;;;;;;;4982660;28;20050;-64
2022/10/17 13:40:53;;;;;;;13.35;4.45;;;;;;;;;;4988693;28;20054;-64
2022/10/17 13:43:21;;;;;;;17.65;4.63;;;;;;;;;;4998039;28;20054;-64
2022/10/17 13:45:49;;;;;;;10.33;4.17;;;;;;;;;;4988687;28;20050;-63
2022/10/17 13:48:21;;;;;;;10.30;3.97;;;;;;;;;;4988987;28;20050;-64
2022/10/17 13:50:49;;;;;;;9.38;4.30;;;;;;;;;;5004873;28;20064;-64
2022/10/17 13:53:17;;;;;;;8.30;3.97;;;;;;;;;;5009940;28;20133;-64
2022/10/17 13:55:51;;;;;;;8.27;3.75;;;;;;;;;;4988517;28;20061;-63
2022/10/17 13:58:18;;;;;;;8.25;4.50;;;;;;;;;;4983245;28;20107;-64
2022/10/17 14:00:45;;;;;;;7.30;3.97;;;;;;;;;;4990537;28;20054;-63
2022/10/17 14:03:11;;;;;;;7.05;3.80;;;;;;;;;;4988005;28;20035;-64
2022/10/17 14:05:53;;;;;;;9.25;4.18;;;;;;;;;;5008573;28;20046;-64
2022/10/17 14:08:22;;;;;;;7.25;4.25;;;;;;;;;;5000385;28;20042;-63
2022/10/17 14:10:48;;;;;;;9.32;4.13;;;;;;;;;;4992544;28;20058;-64
2022/10/17 14:13:19;;;;;;;8.10;3.78;;;;;;;;;;4986735;28;20049;-64
2022/10/17 14:15:46;;;;;;;10.80;4.40;;;;;;;;;;4991415;28;20049;-63
2022/10/17 14:18:17;;;;;;;8.40;4.20;;;;;;;;;;4972477;28;20045;-64
2022/10/17 14:20:46;;;;;;;9.02;4.20;;;;;;;;;;4988933;28;20132;-64
2022/10/17 14:23:31;;;;;;;7.55;3.70;;;;;;;;;;4973101;28;20069;-64
2022/10/17 14:26:08;;;;;;;9.15;4.22;;;;;;;;;;4971782;28;20046;-64
2022/10/17 14:28:36;;;;;;;10.02;4.82;;;;;;;;;;4971203;28;20065;-64
2022/10/17 14:31:18;;;;;;;7.60;4.05;;;;;;;;;;4990075;28;20057;-64
2022/10/17 14:33:45;;;;;;;8.27;4.63;;;;;;;;;;5003639;28;20046;-63
2022/10/17 14:36:12;;;;;;;10.68;4.40;;;;;;;;;;4983481;28;20052;-63
2022/10/17 14:38:44;;;;;;;10.25;5.13;;;;;;;;;;4991380;28;20050;-64
2022/10/17 14:41:15;;;;;;;7.10;3.75;;;;;;;;;;4999737;28;20060;-64
2022/10/17 14:43:41;;;;;;;7.60;3.90;;;;;;;;;;4995712;28;20053;-64
2022/10/17 14:46:13;;;;;;;8.00;4.78;;;;;;;;;;4986703;28;20049;-64
2022/10/17 14:48:41;;;;;;;7.88;4.55;;;;;;;;;;4973472;28;20054;-64
2022/10/17 14:51:08;;;;;;;8.50;4.45;;;;;;;;;;4973589;28;20136;-63
2022/10/17 14:53:35;;;;;;;6.65;3.83;;;;;;;;;;4990712;28;20084;-64
2022/10/17 14:56:04;;;;;;;7.95;4.15;;;;;;;;;;4993308;28;20068;-63